Time,TemperatureF,DewpointF,PressureIn,WindDirection,WindDirectionDegrees,WindSpeedMPH,WindSpeedGustMPH,Humidity,HourlyPrecipIn,Conditions,Clouds,dailyrainin,SolarRadiationWatts/m^2,SoftwareType,DateUTC
2013-03-25 00:00:00,56.5,12.2,29.87,ENE,68,2.0,4.0,17,0.00,,,0.00,0,LWC V2.00 B727,2013-03-25 07:00:00,
2013-03-25 00:10:00,56.2,13.3,29.87,ENE,68,1.0,4.0,18,0.00,,,0.00,0,LWC V2.00 B727,2013-03-25 07:10:00,
2013-03-25 00:20:00,56.2,13.3,29.87,ENE,68,1.0,4.0,18,0.00,,,0.00,0,LWC V2.00 B727,2013-03-25 07:20:00,
2013-03-25 00:30:00,56.2,13.3,29.87,ENE,68,1.0,4.0,18,0.00,,,0.00,0,LWC V2.00 B727,2013-03-25 07:30:00,
2013-03-25 00:40:00,56.4,13.4,29.87,ENE,68,2.0,5.0,18,0.00,,,0.00,0,LWC V2.00 B727,2013-03-25 07:40:00,
2013-03-25 00:50:00,56.4,13.4,29.87,ENE,68,2.0,5.0,18,0.00,,,0.00,0,LWC V2.00 B727,2013-03-25 07:50:00,
2013-03-25 01:00:00,56.4,13.4,29.87,ENE,68,2.0,5.0,18,0.00,,,0.00,0,LWC V2.00 B727,2013-03-25 08:00:00,
2013-03-25 01:10:00,56.4,13.4,29.87,ENE,68,2.0,6.0,18,0.00,,,0.00,0,LWC V2.00 B727,2013-03-25 08:10:00,
2013-03-25 01:20:00,56.4,13.4,29.87,ENE,68,2.0,6.0,18,0.00,,,0.00,0,LWC V2.00 B727,2013-03-25 08:20:00,
2013-03-25 01:30:00,56.4,13.4,29.87,ENE,68,2.0,6.0,18,0.00,,,0.00,0,LWC V2.00 B727,2013-03-25 08:30:00,
2013-03-25 01:40:00,56.5,12.2,29.87,ENE,68,2.0,4.0,17,0.00,,,0.00,0,LWC V2.00 B727,2013-03-25 08:40:00,
2013-03-25 01:50:00,56.5,12.2,29.87,ENE,68,2.0,4.0,17,0.00,,,0.00,0,LWC V2.00 B727,2013-03-25 08:50:00,
2013-03-25 02:00:00,56.5,12.2,29.87,ENE,68,2.0,4.0,17,0.00,,,0.00,0,LWC V2.00 B727,2013-03-25 09:00:00,
2013-03-25 02:10:00,53.9,13.8,29.87,ENE,68,1.0,4.0,20,0.00,,,0.00,0,LWC V2.00 B727,2013-03-25 09:10:00,
2013-03-25 02:20:00,53.9,13.8,29.87,ENE,68,1.0,4.0,20,0.00,,,0.00,0,LWC V2.00 B727,2013-03-25 09:20:00,
2013-03-25 02:30:00,53.9,13.8,29.87,ENE,68,1.0,4.0,20,0.00,,,0.00,0,LWC V2.00 B727,2013-03-25 09:30:00,
2013-03-25 02:40:00,53.2,13.2,29.86,ENE,68,0.0,3.0,20,0.00,,,0.00,0,LWC V2.00 B727,2013-03-25 09:40:00,
2013-03-25 02:50:00,53.2,13.2,29.86,ENE,68,0.0,3.0,20,0.00,,,0.00,0,LWC V2.00 B727,2013-03-25 09:50:00,
2013-03-25 03:00:00,53.2,13.2,29.86,ENE,68,0.0,3.0,20,0.00,,,0.00,0,LWC V2.00 B727,2013-03-25 10:00:00,
2013-03-25 03:10:00,54.0,13.9,29.85,ENE,68,1.0,4.0,20,0.00,,,0.00,0,LWC V2.00 B727,2013-03-25 10:10:00,
2013-03-25 03:20:00,54.0,13.9,29.85,ENE,68,1.0,4.0,20,0.00,,,0.00,0,LWC V2.00 B727,2013-03-25 10:20:00,
2013-03-25 03:30:00,54.0,13.9,29.85,ENE,68,1.0,4.0,20,0.00,,,0.00,0,LWC V2.00 B727,2013-03-25 10:30:00,
2013-03-25 03:40:00,53.7,12.5,29.85,ENE,68,3.0,5.0,19,0.00,,,0.00,0,LWC V2.00 B727,2013-03-25 10:40:00,
2013-03-25 03:50:00,53.7,12.5,29.85,ENE,68,3.0,5.0,19,0.00,,,0.00,0,LWC V2.00 B727,2013-03-25 10:50:00,
2013-03-25 04:00:00,53.7,12.5,29.85,ENE,68,3.0,5.0,19,0.00,,,0.00,0,LWC V2.00 B727,2013-03-25 11:00:00,
2013-03-25 04:10:00,53.4,12.2,29.86,ENE,68,1.0,4.0,19,0.00,,,0.00,0,LWC V2.00 B727,2013-03-25 11:10:00,
2013-03-25 04:20:00,53.4,12.2,29.86,ENE,68,1.0,4.0,19,0.00,,,0.00,0,LWC V2.00 B727,2013-03-25 11:20:00,
2013-03-25 04:30:00,53.4,12.2,29.86,ENE,68,1.0,4.0,19,0.00,,,0.00,0,LWC V2.00 B727,2013-03-25 11:30:00,
2013-03-25 04:40:00,52.2,12.4,29.86,ENE,68,0.0,2.0,20,0.00,,,0.00,0,LWC V2.00 B727,2013-03-25 11:40:00,
2013-03-25 04:50:00,52.2,12.4,29.86,ENE,68,0.0,2.0,20,0.00,,,0.00,0,LWC V2.00 B727,2013-03-25 11:50:00,
2013-03-25 05:00:00,53.3,10.9,29.87,North,0,0.0,0.0,18,0.00,,,0.00,0,LWC V2.00 B727,2013-03-25 12:00:00,
2013-03-25 05:10:00,53.3,10.9,29.87,North,0,0.0,0.0,18,0.00,,,0.00,0,LWC V2.00 B727,2013-03-25 12:10:00,
2013-03-25 05:20:00,53.3,10.9,29.87,North,0,0.0,0.0,18,0.00,,,0.00,0,LWC V2.00 B727,2013-03-25 12:20:00,
2013-03-25 05:30:00,52.9,12.9,29.88,ENE,68,0.0,1.0,20,0.00,,,0.00,0,LWC V2.00 B727,2013-03-25 12:30:00,
2013-03-25 05:40:00,52.9,12.9,29.88,ENE,68,0.0,1.0,20,0.00,,,0.00,0,LWC V2.00 B727,2013-03-25 12:40:00,
2013-03-25 05:50:00,52.9,12.9,29.88,ENE,68,0.0,1.0,20,0.00,,,0.00,0,LWC V2.00 B727,2013-03-25 12:50:00,
2013-03-25 06:06:00,52.4,12.5,29.89,ENE,65,0.0,0.0,20,0.00,,,0.00,0,LWC V2.00 B727,2013-03-25 13:06:00,
2013-03-25 06:11:00,52.4,12.5,29.89,ENE,65,2.0,2.0,20,0.00,,,0.00,0,LWC V2.00 B727,2013-03-25 13:11:00,
2013-03-25 06:16:00,52.6,12.7,29.89,ENE,65,1.0,1.0,20,0.00,,,0.00,0,LWC V2.00 B727,2013-03-25 13:16:00,
2013-03-25 06:21:00,53.0,13.0,29.89,ENE,65,0.0,1.0,20,0.00,,,0.00,5,LWC V2.00 B727,2013-03-25 13:21:00,
2013-03-25 06:26:00,53.4,13.4,29.89,ENE,65,0.0,1.0,20,0.00,,,0.00,9,LWC V2.00 B727,2013-03-25 13:26:00,
2013-03-25 06:31:00,53.0,13.0,29.90,ENE,65,0.0,0.0,20,0.00,,,0.00,11,LWC V2.00 B727,2013-03-25 13:31:00,
2013-03-25 06:36:00,52.6,13.8,29.90,ENE,65,0.0,3.0,21,0.00,,,0.00,12,LWC V2.00 B727,2013-03-25 13:36:00,
2013-03-25 06:41:00,51.8,13.1,29.90,ENE,65,3.0,3.0,21,0.00,,,0.00,16,LWC V2.00 B727,2013-03-25 13:41:00,
2013-03-25 06:46:00,51.7,14.1,29.90,ENE,65,0.0,2.0,22,0.00,,,0.00,18,LWC V2.00 B727,2013-03-25 13:46:00,
2013-03-25 06:51:00,51.8,14.2,29.90,ENE,65,0.0,0.0,22,0.00,,,0.00,19,LWC V2.00 B727,2013-03-25 13:51:00,
2013-03-25 06:56:00,51.9,14.3,29.91,ENE,65,0.0,1.0,22,0.00,,,0.00,23,LWC V2.00 B727,2013-03-25 13:56:00,
2013-03-25 07:01:00,51.5,14.9,29.91,ENE,65,0.0,2.0,23,0.00,,,0.00,25,LWC V2.00 B727,2013-03-25 14:01:00,
2013-03-25 07:06:00,50.9,15.4,29.91,ENE,65,0.0,0.0,24,0.00,,,0.00,26,LWC V2.00 B727,2013-03-25 14:06:00,
2013-03-25 07:11:00,50.8,15.3,29.91,ENE,65,0.0,1.0,24,0.00,,,0.00,28,LWC V2.00 B727,2013-03-25 14:11:00,
2013-03-25 07:16:00,52.3,14.6,29.91,ENE,65,0.0,2.0,22,0.00,,,0.00,127,LWC V2.00 B727,2013-03-25 14:16:00,
2013-03-25 07:21:00,53.4,16.5,29.92,ENE,65,0.0,0.0,23,0.00,,,0.00,167,LWC V2.00 B727,2013-03-25 14:21:00,
2013-03-25 07:26:00,54.5,17.5,29.92,ENE,65,0.0,0.0,23,0.00,,,0.00,186,LWC V2.00 B727,2013-03-25 14:26:00,
2013-03-25 07:31:00,53.3,17.4,29.92,ENE,65,0.0,0.0,24,0.00,,,0.00,204,LWC V2.00 B727,2013-03-25 14:31:00,
2013-03-25 07:36:00,52.2,17.5,29.92,ENE,65,0.0,0.0,25,0.00,,,0.00,223,LWC V2.00 B727,2013-03-25 14:36:00,
2013-03-25 07:41:00,52.5,18.6,29.92,ENE,65,0.0,0.0,26,0.00,,,0.00,241,LWC V2.00 B727,2013-03-25 14:41:00,
2013-03-25 07:46:00,54.8,20.6,29.93,ENE,65,1.0,1.0,26,0.00,,,0.00,257,LWC V2.00 B727,2013-03-25 14:46:00,
2013-03-25 07:51:00,55.0,19.8,29.93,ENE,65,0.0,0.0,25,0.00,,,0.00,276,LWC V2.00 B727,2013-03-25 14:51:00,
2013-03-25 07:56:00,54.4,21.1,29.93,ENE,65,0.0,0.0,27,0.00,,,0.00,297,LWC V2.00 B727,2013-03-25 14:56:00,
2013-03-25 08:01:00,55.0,21.6,29.93,ENE,65,0.0,0.0,27,0.00,,,0.00,316,LWC V2.00 B727,2013-03-25 15:01:00,
2013-03-25 08:06:00,56.1,21.7,29.93,ENE,65,0.0,0.0,26,0.00,,,0.00,336,LWC V2.00 B727,2013-03-25 15:06:00,
2013-03-25 08:11:00,55.8,21.4,29.93,ENE,65,0.0,1.0,26,0.00,,,0.00,355,LWC V2.00 B727,2013-03-25 15:11:00,
2013-03-25 08:16:00,55.6,20.3,29.93,ENE,65,0.0,0.0,25,0.00,,,0.00,374,LWC V2.00 B727,2013-03-25 15:16:00,
2013-03-25 08:21:00,56.2,19.9,29.93,ENE,65,0.0,0.0,24,0.00,,,0.00,390,LWC V2.00 B727,2013-03-25 15:21:00,
2013-03-25 08:26:00,57.0,20.6,29.93,ENE,65,0.0,1.0,24,0.00,,,0.00,408,LWC V2.00 B727,2013-03-25 15:26:00,
2013-03-25 08:31:00,58.1,20.5,29.93,ENE,65,0.0,0.0,23,0.00,,,0.00,427,LWC V2.00 B727,2013-03-25 15:31:00,
2013-03-25 08:36:00,59.8,20.9,29.93,ENE,65,0.0,1.0,22,0.00,,,0.00,445,LWC V2.00 B727,2013-03-25 15:36:00,
2013-03-25 08:41:00,61.1,20.9,29.93,ENE,65,0.0,0.0,21,0.00,,,0.00,464,LWC V2.00 B727,2013-03-25 15:41:00,
2013-03-25 08:46:00,61.5,21.2,29.93,NNE,32,0.0,1.0,21,0.00,,,0.00,483,LWC V2.00 B727,2013-03-25 15:46:00,
2013-03-25 08:51:00,62.3,19.5,29.93,NNE,32,0.0,0.0,19,0.00,,,0.00,497,LWC V2.00 B727,2013-03-25 15:51:00,
2013-03-25 08:56:00,62.5,19.7,29.94,NNE,32,0.0,1.0,19,0.00,,,0.00,513,LWC V2.00 B727,2013-03-25 15:56:00,
2013-03-25 09:01:00,63.2,19.0,29.94,NNE,32,0.0,0.0,18,0.00,,,0.00,533,LWC V2.00 B727,2013-03-25 16:01:00,
2013-03-25 09:06:00,63.2,19.0,29.94,NNE,32,0.0,0.0,18,0.00,,,0.00,548,LWC V2.00 B727,2013-03-25 16:06:00,
2013-03-25 09:11:00,62.6,17.2,29.94,NNE,32,0.0,1.0,17,0.00,,,0.00,568,LWC V2.00 B727,2013-03-25 16:11:00,
2013-03-25 09:16:00,63.3,17.8,29.94,NNE,32,0.0,0.0,17,0.00,,,0.00,582,LWC V2.00 B727,2013-03-25 16:16:00,
2013-03-25 09:21:00,63.9,18.2,29.94,NNE,32,0.0,1.0,17,0.00,,,0.00,599,LWC V2.00 B727,2013-03-25 16:21:00,
2013-03-25 09:26:00,65.8,18.4,29.94,NNE,32,0.0,1.0,16,0.00,,,0.00,612,LWC V2.00 B727,2013-03-25 16:26:00,
2013-03-25 09:31:00,64.9,16.2,29.93,NNE,32,0.0,2.0,15,0.00,,,0.00,629,LWC V2.00 B727,2013-03-25 16:31:00,
2013-03-25 09:36:00,64.8,14.5,29.93,SSW,200,0.0,5.0,14,0.00,,,0.00,645,LWC V2.00 B727,2013-03-25 16:36:00,
2013-03-25 09:41:00,65.8,15.3,29.93,SSW,194,4.0,4.0,14,0.00,,,0.00,657,LWC V2.00 B727,2013-03-25 16:41:00,
2013-03-25 09:46:00,65.6,16.7,29.93,SSW,209,0.0,6.0,15,0.00,,,0.00,673,LWC V2.00 B727,2013-03-25 16:46:00,
2013-03-25 09:51:00,66.1,15.5,29.93,SW,216,4.0,6.0,14,0.00,,,0.00,687,LWC V2.00 B727,2013-03-25 16:51:00,
2013-03-25 09:56:00,66.8,12.6,29.93,WSW,243,2.0,5.0,12,0.00,,,0.00,700,LWC V2.00 B727,2013-03-25 16:56:00,
2013-03-25 10:01:00,66.9,14.5,29.93,SW,221,2.0,5.0,13,0.00,,,0.00,710,LWC V2.00 B727,2013-03-25 17:01:00,
2013-03-25 10:06:00,67.2,12.9,29.93,SW,217,0.0,5.0,12,0.00,,,0.00,724,LWC V2.00 B727,2013-03-25 17:06:00,
2013-03-25 10:11:00,67.3,13.0,29.93,SW,222,0.0,1.0,12,0.00,,,0.00,738,LWC V2.00 B727,2013-03-25 17:11:00,
2013-03-25 10:16:00,68.2,13.7,29.93,SW,233,0.0,2.0,12,0.00,,,0.00,751,LWC V2.00 B727,2013-03-25 17:16:00,
2013-03-25 10:21:00,68.4,13.8,29.93,SW,231,0.0,2.0,12,0.00,,,0.00,759,LWC V2.00 B727,2013-03-25 17:21:00,
2013-03-25 10:26:00,68.7,14.1,29.93,SW,225,1.0,1.0,12,0.00,,,0.00,772,LWC V2.00 B727,2013-03-25 17:26:00,
2013-03-25 10:31:00,69.0,14.3,29.93,SSE,162,2.0,4.0,12,0.00,,,0.00,784,LWC V2.00 B727,2013-03-25 17:31:00,
2013-03-25 10:36:00,69.1,14.4,29.93,SW,214,1.0,5.0,12,0.00,,,0.00,793,LWC V2.00 B727,2013-03-25 17:36:00,
2013-03-25 10:41:00,70.6,13.6,29.93,WSW,255,0.0,2.0,11,0.00,,,0.00,800,LWC V2.00 B727,2013-03-25 17:41:00,
2013-03-25 10:46:00,70.5,15.5,29.92,WNW,282,0.0,3.0,12,0.00,,,0.00,812,LWC V2.00 B727,2013-03-25 17:46:00,
2013-03-25 10:51:00,70.1,15.1,29.92,NW,314,2.0,2.0,12,0.00,,,0.00,823,LWC V2.00 B727,2013-03-25 17:51:00,
2013-03-25 10:56:00,70.8,15.7,29.92,NW,325,1.0,3.0,12,0.00,,,0.00,831,LWC V2.00 B727,2013-03-25 17:56:00,
2013-03-25 11:01:00,71.3,14.1,29.92,SW,230,2.0,5.0,11,0.00,,,0.00,840,LWC V2.00 B727,2013-03-25 18:01:00,
2013-03-25 11:06:00,70.4,15.4,29.92,SW,229,0.0,4.0,12,0.00,,,0.00,847,LWC V2.00 B727,2013-03-25 18:06:00,
2013-03-25 11:11:00,70.7,13.6,29.92,SW,223,0.0,1.0,11,0.00,,,0.00,854,LWC V2.00 B727,2013-03-25 18:11:00,
2013-03-25 11:16:00,71.2,16.0,29.91,WSW,244,3.0,6.0,12,0.00,,,0.00,861,LWC V2.00 B727,2013-03-25 18:16:00,
2013-03-25 11:21:00,71.6,16.3,29.91,SSW,196,0.0,4.0,12,0.00,,,0.00,867,LWC V2.00 B727,2013-03-25 18:21:00,
2013-03-25 11:26:00,71.5,16.2,29.91,SSE,150,0.0,2.0,12,0.00,,,0.00,874,LWC V2.00 B727,2013-03-25 18:26:00,
2013-03-25 11:31:00,71.5,14.2,29.91,SSW,209,5.0,5.0,11,0.00,,,0.00,882,LWC V2.00 B727,2013-03-25 18:31:00,
2013-03-25 11:36:00,71.4,16.2,29.91,NNE,33,4.0,5.0,12,0.00,,,0.00,888,LWC V2.00 B727,2013-03-25 18:36:00,
2013-03-25 11:41:00,72.2,14.8,29.90,North,5,0.0,4.0,11,0.00,,,0.00,891,LWC V2.00 B727,2013-03-25 18:41:00,
2013-03-25 11:46:00,73.1,15.5,29.90,WSW,255,2.0,5.0,11,0.00,,,0.00,893,LWC V2.00 B727,2013-03-25 18:46:00,
2013-03-25 11:51:00,72.9,15.3,29.90,WSW,252,1.0,3.0,11,0.00,,,0.00,896,LWC V2.00 B727,2013-03-25 18:51:00,
2013-03-25 11:56:00,72.8,17.2,29.90,West,267,3.0,5.0,12,0.00,,,0.00,900,LWC V2.00 B727,2013-03-25 18:56:00,
2013-03-25 12:01:00,72.7,15.2,29.90,NE,42,0.0,5.0,11,0.00,,,0.00,902,LWC V2.00 B727,2013-03-25 19:01:00,
2013-03-25 12:06:00,73.3,15.6,29.90,SSW,213,3.0,7.0,11,0.00,,,0.00,909,LWC V2.00 B727,2013-03-25 19:06:00,
2013-03-25 12:11:00,72.9,15.3,29.90,SSW,193,0.0,4.0,11,0.00,,,0.00,909,LWC V2.00 B727,2013-03-25 19:11:00,
2013-03-25 12:16:00,73.2,17.6,29.89,SW,219,0.0,4.0,12,0.00,,,0.00,911,LWC V2.00 B727,2013-03-25 19:16:00,
2013-03-25 12:21:00,73.9,16.1,29.89,West,272,1.0,6.0,11,0.00,,,0.00,914,LWC V2.00 B727,2013-03-25 19:21:00,
2013-03-25 12:26:00,74.7,14.5,29.89,SW,216,6.0,6.0,10,0.00,,,0.00,916,LWC V2.00 B727,2013-03-25 19:26:00,
2013-03-25 12:31:00,74.2,16.3,29.89,WSW,242,1.0,4.0,11,0.00,,,0.00,918,LWC V2.00 B727,2013-03-25 19:31:00,
2013-03-25 12:36:00,73.9,13.9,29.89,SSE,148,2.0,4.0,10,0.00,,,0.00,914,LWC V2.00 B727,2013-03-25 19:36:00,
2013-03-25 12:41:00,74.1,14.1,29.88,South,185,0.0,4.0,10,0.00,,,0.00,912,LWC V2.00 B727,2013-03-25 19:41:00,
2013-03-25 12:46:00,75.7,15.3,29.88,SSW,192,0.0,2.0,10,0.00,,,0.00,914,LWC V2.00 B727,2013-03-25 19:46:00,
2013-03-25 12:51:00,75.8,15.4,29.88,West,261,0.0,5.0,10,0.00,,,0.00,909,LWC V2.00 B727,2013-03-25 19:51:00,
2013-03-25 12:56:00,76.5,13.5,29.88,NW,309,0.0,3.0,9,0.00,,,0.00,907,LWC V2.00 B727,2013-03-25 19:56:00,
2013-03-25 13:01:00,76.0,17.7,29.88,West,267,3.0,5.0,11,0.00,,,0.00,900,LWC V2.00 B727,2013-03-25 20:01:00,
2013-03-25 13:06:00,75.2,14.9,29.88,SW,220,5.0,6.0,10,0.00,,,0.00,898,LWC V2.00 B727,2013-03-25 20:06:00,
2013-03-25 13:11:00,76.5,15.9,29.87,SW,217,8.0,8.0,10,0.00,,,0.00,893,LWC V2.00 B727,2013-03-25 20:11:00,
2013-03-25 13:17:00,76.0,15.5,29.87,SSW,192,0.0,5.0,10,0.00,,,0.00,891,LWC V2.00 B727,2013-03-25 20:17:00,
2013-03-25 13:22:00,75.8,15.4,29.86,SSW,205,6.0,7.0,10,0.00,,,0.00,888,LWC V2.00 B727,2013-03-25 20:22:00,
2013-03-25 13:27:00,76.0,15.5,29.86,SW,217,6.0,8.0,10,0.00,,,0.00,881,LWC V2.00 B727,2013-03-25 20:27:00,
2013-03-25 13:32:00,76.3,13.3,29.86,SSW,200,2.0,7.0,9,0.00,,,0.00,877,LWC V2.00 B727,2013-03-25 20:32:00,
2013-03-25 13:37:00,76.1,15.6,29.86,SSW,207,4.0,6.0,10,0.00,,,0.00,870,LWC V2.00 B727,2013-03-25 20:37:00,
2013-03-25 13:42:00,75.9,15.4,29.86,South,176,2.0,5.0,10,0.00,,,0.00,860,LWC V2.00 B727,2013-03-25 20:42:00,
2013-03-25 13:47:00,76.1,17.8,29.86,SSW,213,2.0,2.0,11,0.00,,,0.00,856,LWC V2.00 B727,2013-03-25 20:47:00,
2013-03-25 13:52:00,77.0,13.9,29.85,WSW,253,5.0,7.0,9,0.00,,,0.00,851,LWC V2.00 B727,2013-03-25 20:52:00,
2013-03-25 13:57:00,77.2,14.0,29.85,SW,233,5.0,9.0,9,0.00,,,0.00,844,LWC V2.00 B727,2013-03-25 20:57:00,
2013-03-25 14:02:00,75.9,13.0,29.85,South,178,2.0,6.0,9,0.00,,,0.00,833,LWC V2.00 B727,2013-03-25 21:02:00,
2013-03-25 14:07:00,76.7,13.6,29.85,SSW,212,5.0,6.0,9,0.00,,,0.00,824,LWC V2.00 B727,2013-03-25 21:07:00,
2013-03-25 14:12:00,76.6,13.6,29.85,West,278,3.0,5.0,9,0.00,,,0.00,816,LWC V2.00 B727,2013-03-25 21:12:00,
2013-03-25 14:17:00,77.0,13.9,29.84,SW,216,0.0,1.0,9,0.00,,,0.00,807,LWC V2.00 B727,2013-03-25 21:17:00,
2013-03-25 14:22:00,77.6,14.3,29.84,West,272,2.0,6.0,9,0.00,,,0.00,796,LWC V2.00 B727,2013-03-25 21:22:00,
2013-03-25 14:27:00,78.9,9.6,29.84,NNE,25,6.0,8.0,7,0.00,,,0.00,793,LWC V2.00 B727,2013-03-25 21:27:00,
2013-03-25 14:32:00,77.4,11.5,29.84,North,350,0.0,3.0,8,0.00,,,0.00,780,LWC V2.00 B727,2013-03-25 21:32:00,
2013-03-25 14:37:00,78.9,12.6,29.84,NW,320,1.0,5.0,8,0.00,,,0.00,768,LWC V2.00 B727,2013-03-25 21:37:00,
2013-03-25 14:42:00,78.9,12.6,29.83,West,268,0.0,6.0,8,0.00,,,0.00,758,LWC V2.00 B727,2013-03-25 21:42:00,
2013-03-25 14:47:00,78.7,12.5,29.84,NW,323,0.0,4.0,8,0.00,,,0.00,744,LWC V2.00 B727,2013-03-25 21:47:00,
2013-03-25 14:52:00,78.7,12.5,29.83,North,5,4.0,8.0,8,0.00,,,0.00,731,LWC V2.00 B727,2013-03-25 21:52:00,
2013-03-25 14:57:00,77.9,14.5,29.83,ENE,65,3.0,6.0,9,0.00,,,0.00,721,LWC V2.00 B727,2013-03-25 21:57:00,
2013-03-25 15:02:00,77.1,11.3,29.83,NNE,21,8.0,8.0,8,0.00,,,0.00,707,LWC V2.00 B727,2013-03-25 22:02:00,
2013-03-25 15:07:00,76.9,13.8,29.83,NNE,20,4.0,11.0,9,0.00,,,0.00,691,LWC V2.00 B727,2013-03-25 22:07:00,
2013-03-25 15:12:00,78.1,14.7,29.83,NNE,32,8.0,9.0,9,0.00,,,0.00,680,LWC V2.00 B727,2013-03-25 22:12:00,
2013-03-25 15:17:00,78.1,12.0,29.83,North,355,5.0,8.0,8,0.00,,,0.00,664,LWC V2.00 B727,2013-03-25 22:17:00,
2013-03-25 15:22:00,77.5,14.2,29.83,NNW,340,8.0,8.0,9,0.00,,,0.00,649,LWC V2.00 B727,2013-03-25 22:22:00,
2013-03-25 15:27:00,77.9,14.5,29.83,NNE,22,2.0,6.0,9,0.00,,,0.00,635,LWC V2.00 B727,2013-03-25 22:27:00,
2013-03-25 15:32:00,77.1,13.9,29.83,NNW,331,0.0,3.0,9,0.00,,,0.00,621,LWC V2.00 B727,2013-03-25 22:32:00,
2013-03-25 15:37:00,77.9,11.9,29.83,NW,306,1.0,7.0,8,0.00,,,0.00,606,LWC V2.00 B727,2013-03-25 22:37:00,
2013-03-25 15:42:00,77.5,11.6,29.83,NNE,17,1.0,6.0,8,0.00,,,0.00,592,LWC V2.00 B727,2013-03-25 22:42:00,
2013-03-25 15:47:00,77.0,11.2,29.82,NW,308,3.0,4.0,8,0.00,,,0.00,575,LWC V2.00 B727,2013-03-25 22:47:00,
2013-03-25 15:52:00,77.4,14.2,29.82,North,9,5.0,5.0,9,0.00,,,0.00,559,LWC V2.00 B727,2013-03-25 22:52:00,
2013-03-25 15:57:00,77.5,11.6,29.82,North,5,1.0,3.0,8,0.00,,,0.00,541,LWC V2.00 B727,2013-03-25 22:57:00,
2013-03-25 16:02:00,77.3,14.1,29.82,WNW,296,3.0,5.0,9,0.00,,,0.00,526,LWC V2.00 B727,2013-03-25 23:02:00,
2013-03-25 16:07:00,77.2,11.4,29.82,WNW,288,0.0,3.0,8,0.00,,,0.00,510,LWC V2.00 B727,2013-03-25 23:07:00,
2013-03-25 16:12:00,76.8,13.7,29.82,North,0,4.0,5.0,9,0.00,,,0.00,494,LWC V2.00 B727,2013-03-25 23:12:00,
2013-03-25 16:17:00,77.2,14.0,29.82,SW,235,2.0,4.0,9,0.00,,,0.00,473,LWC V2.00 B727,2013-03-25 23:17:00,
2013-03-25 16:22:00,77.6,14.3,29.82,SSW,210,5.0,5.0,9,0.00,,,0.00,457,LWC V2.00 B727,2013-03-25 23:22:00,
2013-03-25 16:27:00,76.8,11.1,29.82,NW,322,0.0,5.0,8,0.00,,,0.00,438,LWC V2.00 B727,2013-03-25 23:27:00,
2013-03-25 16:32:00,76.8,13.7,29.82,SW,227,3.0,5.0,9,0.00,,,0.00,418,LWC V2.00 B727,2013-03-25 23:32:00,
2013-03-25 16:37:00,76.5,15.9,29.82,NW,311,0.0,1.0,10,0.00,,,0.00,401,LWC V2.00 B727,2013-03-25 23:37:00,
2013-03-25 16:42:00,77.3,14.1,29.82,SW,224,6.0,6.0,9,0.00,,,0.00,385,LWC V2.00 B727,2013-03-25 23:42:00,
2013-03-25 16:47:00,76.6,13.6,29.82,SW,229,0.0,7.0,9,0.00,,,0.00,366,LWC V2.00 B727,2013-03-25 23:47:00,
2013-03-25 16:52:00,76.6,13.6,29.82,SSW,213,5.0,6.0,9,0.00,,,0.00,346,LWC V2.00 B727,2013-03-25 23:52:00,
2013-03-25 16:57:00,75.8,15.4,29.82,SSW,200,1.0,6.0,10,0.00,,,0.00,327,LWC V2.00 B727,2013-03-25 23:57:00,
2013-03-25 17:02:00,75.7,12.9,29.81,SSW,204,0.0,3.0,9,0.00,,,0.00,306,LWC V2.00 B727,2013-03-26 00:02:00,
2013-03-25 17:07:00,76.2,13.3,29.81,SSW,204,0.0,1.0,9,0.00,,,0.00,287,LWC V2.00 B727,2013-03-26 00:07:00,
2013-03-25 17:12:00,76.3,13.3,29.81,NNE,22,6.0,10.0,9,0.00,,,0.00,267,LWC V2.00 B727,2013-03-26 00:12:00,
2013-03-25 17:17:00,76.2,13.3,29.81,North,0,1.0,5.0,9,0.00,,,0.00,248,LWC V2.00 B727,2013-03-26 00:17:00,
2013-03-25 17:22:00,76.3,15.7,29.81,North,0,1.0,5.0,10,0.00,,,0.00,227,LWC V2.00 B727,2013-03-26 00:22:00,
2013-03-25 17:27:00,75.9,13.0,29.81,NNE,28,4.0,8.0,9,0.00,,,0.00,204,LWC V2.00 B727,2013-03-26 00:27:00,
2013-03-25 17:32:00,75.3,15.0,29.81,NNE,15,3.0,8.0,10,0.00,,,0.00,181,LWC V2.00 B727,2013-03-26 00:32:00,
2013-03-25 17:37:00,75.2,14.9,29.81,NNE,19,3.0,3.0,10,0.00,,,0.00,158,LWC V2.00 B727,2013-03-26 00:37:00,
2013-03-25 17:42:00,74.9,12.3,29.81,NNE,13,2.0,5.0,9,0.00,,,0.00,135,LWC V2.00 B727,2013-03-26 00:42:00,
2013-03-25 17:47:00,74.7,14.5,29.81,NNE,13,0.0,3.0,10,0.00,,,0.00,118,LWC V2.00 B727,2013-03-26 00:47:00,
2013-03-25 17:52:00,74.8,14.6,29.82,NW,310,4.0,4.0,10,0.00,,,0.00,97,LWC V2.00 B727,2013-03-26 00:52:00,
2013-03-25 17:57:00,74.7,14.5,29.82,WNW,298,0.0,1.0,10,0.00,,,0.00,81,LWC V2.00 B727,2013-03-26 00:57:00,
2013-03-25 18:02:00,74.5,14.4,29.82,WNW,299,0.0,1.0,10,0.00,,,0.00,63,LWC V2.00 B727,2013-03-26 01:02:00,
2013-03-25 18:07:00,74.2,14.1,29.82,NW,313,0.0,2.0,10,0.00,,,0.00,49,LWC V2.00 B727,2013-03-26 01:07:00,
2013-03-25 18:12:00,74.0,14.0,29.82,WNW,293,0.0,5.0,10,0.00,,,0.00,37,LWC V2.00 B727,2013-03-26 01:12:00,
2013-03-25 18:17:00,73.5,13.6,29.82,NW,321,3.0,6.0,10,0.00,,,0.00,26,LWC V2.00 B727,2013-03-26 01:17:00,
2013-03-25 18:22:00,73.0,15.4,29.82,NW,316,0.0,2.0,11,0.00,,,0.00,19,LWC V2.00 B727,2013-03-26 01:22:00,
2013-03-25 18:27:00,72.6,15.1,29.82,NW,306,1.0,3.0,11,0.00,,,0.00,14,LWC V2.00 B727,2013-03-26 01:27:00,
2013-03-25 18:32:00,71.9,14.6,29.82,WNW,302,0.0,2.0,11,0.00,,,0.00,9,LWC V2.00 B727,2013-03-26 01:32:00,
2013-03-25 18:37:00,71.3,14.1,29.83,NW,304,0.0,3.0,11,0.00,,,0.00,5,LWC V2.00 B727,2013-03-26 01:37:00,
2013-03-25 18:42:00,70.9,13.8,29.83,NNW,331,0.0,1.0,11,0.00,,,0.00,0,LWC V2.00 B727,2013-03-26 01:42:00,
2013-03-25 18:47:00,70.3,15.3,29.83,NW,324,0.0,0.0,12,0.00,,,0.00,0,LWC V2.00 B727,2013-03-26 01:47:00,
2013-03-25 18:52:00,69.7,14.8,29.83,NW,324,0.0,1.0,12,0.00,,,0.00,0,LWC V2.00 B727,2013-03-26 01:52:00,
2013-03-25 18:57:00,69.3,16.4,29.83,NW,324,0.0,1.0,13,0.00,,,0.00,0,LWC V2.00 B727,2013-03-26 01:57:00,
2013-03-25 19:02:00,69.0,16.1,29.83,NW,324,0.0,1.0,13,0.00,,,0.00,0,LWC V2.00 B727,2013-03-26 02:02:00,
2013-03-25 19:07:00,69.0,16.1,29.83,NW,324,0.0,1.0,13,0.00,,,0.00,0,LWC V2.00 B727,2013-03-26 02:07:00,
2013-03-25 19:12:00,68.6,15.8,29.84,NW,324,0.0,0.0,13,0.00,,,0.00,0,LWC V2.00 B727,2013-03-26 02:12:00,
2013-03-25 19:17:00,67.5,16.6,29.84,NW,324,0.0,2.0,14,0.00,,,0.00,0,LWC V2.00 B727,2013-03-26 02:17:00,
2013-03-25 19:22:00,66.8,16.1,29.84,North,355,2.0,4.0,14,0.00,,,0.00,0,LWC V2.00 B727,2013-03-26 02:22:00,
2013-03-25 19:27:00,66.7,16.0,29.85,East,96,1.0,3.0,14,0.00,,,0.00,0,LWC V2.00 B727,2013-03-26 02:27:00,
2013-03-25 19:32:00,67.7,15.1,29.85,East,97,0.0,2.0,13,0.00,,,0.00,0,LWC V2.00 B727,2013-03-26 02:32:00,
2013-03-25 19:37:00,68.2,15.5,29.85,ENE,76,5.0,5.0,13,0.00,,,0.00,0,LWC V2.00 B727,2013-03-26 02:37:00,
2013-03-25 19:42:00,68.8,14.1,29.85,ESE,118,0.0,1.0,12,0.00,,,0.00,0,LWC V2.00 B727,2013-03-26 02:42:00,
2013-03-25 19:47:00,69.3,14.5,29.86,NNE,24,0.0,1.0,12,0.00,,,0.00,0,LWC V2.00 B727,2013-03-26 02:47:00,
2013-03-25 19:52:00,68.1,15.4,29.86,NNE,24,0.0,0.0,13,0.00,,,0.00,0,LWC V2.00 B727,2013-03-26 02:52:00,
2013-03-25 19:57:00,67.1,16.3,29.86,NNE,24,0.0,1.0,14,0.00,,,0.00,0,LWC V2.00 B727,2013-03-26 02:57:00,
2013-03-25 20:02:00,66.6,15.9,29.86,NNE,24,0.0,0.0,14,0.00,,,0.00,0,LWC V2.00 B727,2013-03-26 03:02:00,
2013-03-25 20:07:00,66.2,17.2,29.86,NNE,24,0.0,3.0,15,0.00,,,0.00,0,LWC V2.00 B727,2013-03-26 03:07:00,
2013-03-25 20:12:00,65.9,17.0,29.86,NNE,24,1.0,1.0,15,0.00,,,0.00,0,LWC V2.00 B727,2013-03-26 03:12:00,
2013-03-25 20:17:00,65.9,17.0,29.86,NNE,25,1.0,1.0,15,0.00,,,0.00,0,LWC V2.00 B727,2013-03-26 03:17:00,
2013-03-25 20:22:00,65.3,16.5,29.86,NNE,24,2.0,2.0,15,0.00,,,0.00,0,LWC V2.00 B727,2013-03-26 03:22:00,
2013-03-25 20:27:00,64.8,17.6,29.87,NNE,25,2.0,3.0,16,0.00,,,0.00,0,LWC V2.00 B727,2013-03-26 03:27:00,
2013-03-25 20:32:00,64.8,16.1,29.87,NNE,25,0.0,2.0,15,0.00,,,0.00,0,LWC V2.00 B727,2013-03-26 03:32:00,
2013-03-25 20:37:00,64.9,17.6,29.87,ENE,67,1.0,4.0,16,0.00,,,0.00,0,LWC V2.00 B727,2013-03-26 03:37:00,
2013-03-25 20:42:00,64.2,18.5,29.87,NE,45,0.0,5.0,17,0.00,,,0.00,0,LWC V2.00 B727,2013-03-26 03:42:00,
2013-03-25 20:47:00,63.6,18.0,29.87,ENE,58,0.0,3.0,17,0.00,,,0.00,0,LWC V2.00 B727,2013-03-26 03:47:00,
2013-03-25 20:52:00,63.6,18.0,29.88,NE,54,0.0,1.0,17,0.00,,,0.00,0,LWC V2.00 B727,2013-03-26 03:52:00,
2013-03-25 20:57:00,63.6,18.0,29.88,NE,54,2.0,3.0,17,0.00,,,0.00,0,LWC V2.00 B727,2013-03-26 03:57:00,
2013-03-25 21:00:00,63.5,17.9,29.88,NE,54,1.0,2.0,17,0.00,,,0.00,0,LWC V2.00 B727,2013-03-26 04:00:00,
2013-03-25 21:05:00,63.4,17.8,29.88,ENE,58,2.0,4.0,17,0.00,,,0.00,0,LWC V2.00 B727,2013-03-26 04:05:00,
2013-03-25 21:10:00,62.6,18.5,29.89,ENE,59,1.0,5.0,18,0.00,,,0.00,0,LWC V2.00 B727,2013-03-26 04:10:00,
2013-03-25 21:11:00,62.4,19.6,29.88,ENE,59,2.0,4.0,19,0.00,,,0.00,0,LWC V2.00 B727,2013-03-26 04:11:00,
2013-03-25 21:16:00,62.1,19.4,29.88,ENE,59,2.0,3.0,19,0.00,,,0.00,0,LWC V2.00 B727,2013-03-26 04:16:00,
2013-03-25 21:21:00,61.8,19.1,29.89,ENE,59,1.0,3.0,19,0.00,,,0.00,0,LWC V2.00 B727,2013-03-26 04:21:00,
2013-03-25 21:26:00,61.6,19.0,29.89,ENE,58,2.0,4.0,19,0.00,,,0.00,0,LWC V2.00 B727,2013-03-26 04:26:00,
2013-03-25 21:31:00,61.4,20.0,29.89,ENE,59,2.0,3.0,20,0.00,,,0.00,0,LWC V2.00 B727,2013-03-26 04:31:00,
2013-03-25 21:36:00,61.2,19.8,29.89,ENE,59,3.0,4.0,20,0.00,,,0.00,0,LWC V2.00 B727,2013-03-26 04:36:00,
2013-03-25 21:41:00,61.1,19.7,29.89,ENE,59,3.0,3.0,20,0.00,,,0.00,0,LWC V2.00 B727,2013-03-26 04:41:00,
2013-03-25 21:46:00,61.3,19.9,29.89,ENE,59,3.0,4.0,20,0.00,,,0.00,0,LWC V2.00 B727,2013-03-26 04:46:00,
2013-03-25 21:51:00,61.1,19.7,29.89,ENE,59,2.0,3.0,20,0.00,,,0.00,0,LWC V2.00 B727,2013-03-26 04:51:00,
2013-03-25 21:56:00,61.1,19.7,29.89,ENE,59,3.0,3.0,20,0.00,,,0.00,0,LWC V2.00 B727,2013-03-26 04:56:00,
2013-03-25 22:01:00,60.9,19.6,29.89,ENE,59,2.0,4.0,20,0.00,,,0.00,0,LWC V2.00 B727,2013-03-26 05:01:00,
2013-03-25 22:06:00,61.1,19.7,29.89,ENE,59,2.0,3.0,20,0.00,,,0.00,0,LWC V2.00 B727,2013-03-26 05:06:00,
2013-03-25 22:11:00,61.0,19.7,29.89,ENE,59,1.0,3.0,20,0.00,,,0.00,0,LWC V2.00 B727,2013-03-26 05:11:00,
2013-03-25 22:16:00,61.2,19.8,29.89,ENE,59,1.0,3.0,20,0.00,,,0.00,0,LWC V2.00 B727,2013-03-26 05:16:00,
2013-03-25 22:21:00,61.2,19.8,29.89,ENE,59,2.0,3.0,20,0.00,,,0.00,0,LWC V2.00 B727,2013-03-26 05:21:00,
2013-03-25 22:26:00,61.1,19.7,29.89,ENE,59,0.0,2.0,20,0.00,,,0.00,0,LWC V2.00 B727,2013-03-26 05:26:00,
2013-03-25 22:31:00,61.1,19.7,29.89,ENE,59,2.0,4.0,20,0.00,,,0.00,0,LWC V2.00 B727,2013-03-26 05:31:00,
2013-03-25 22:36:00,61.1,19.7,29.89,ENE,61,2.0,4.0,20,0.00,,,0.00,0,LWC V2.00 B727,2013-03-26 05:36:00,
2013-03-25 22:41:00,60.8,20.6,29.89,ENE,61,3.0,4.0,21,0.00,,,0.00,0,LWC V2.00 B727,2013-03-26 05:41:00,
2013-03-25 22:46:00,60.5,20.4,29.89,ENE,61,3.0,4.0,21,0.00,,,0.00,0,LWC V2.00 B727,2013-03-26 05:46:00,
2013-03-25 22:51:00,60.4,20.3,29.89,ENE,61,2.0,4.0,21,0.00,,,0.00,0,LWC V2.00 B727,2013-03-26 05:51:00,
2013-03-25 22:56:00,60.4,20.3,29.89,ENE,61,1.0,3.0,21,0.00,,,0.00,0,LWC V2.00 B727,2013-03-26 05:56:00,
2013-03-25 23:01:00,60.5,20.4,29.88,ENE,61,0.0,3.0,21,0.00,,,0.00,0,LWC V2.00 B727,2013-03-26 06:01:00,
2013-03-25 23:06:00,60.8,19.5,29.88,ENE,61,3.0,3.0,20,0.00,,,0.00,0,LWC V2.00 B727,2013-03-26 06:06:00,
2013-03-25 23:11:00,60.8,19.5,29.88,ENE,61,2.0,4.0,20,0.00,,,0.00,0,LWC V2.00 B727,2013-03-26 06:11:00,
2013-03-25 23:16:00,60.8,19.5,29.88,ENE,61,2.0,4.0,20,0.00,,,0.00,0,LWC V2.00 B727,2013-03-26 06:16:00,
2013-03-25 23:21:00,60.6,20.5,29.88,ENE,61,3.0,3.0,21,0.00,,,0.00,0,LWC V2.00 B727,2013-03-26 06:21:00,
2013-03-25 23:26:00,60.5,20.4,29.88,ENE,61,1.0,2.0,21,0.00,,,0.00,0,LWC V2.00 B727,2013-03-26 06:26:00,
2013-03-25 23:31:00,60.4,20.3,29.88,ENE,61,2.0,3.0,21,0.00,,,0.00,0,LWC V2.00 B727,2013-03-26 06:31:00,
2013-03-25 23:36:00,60.3,20.2,29.87,ENE,61,4.0,4.0,21,0.00,,,0.00,0,LWC V2.00 B727,2013-03-26 06:36:00,
2013-03-25 23:41:00,60.3,20.2,29.87,ENE,61,2.0,4.0,21,0.00,,,0.00,0,LWC V2.00 B727,2013-03-26 06:41:00,
2013-03-25 23:46:00,60.4,20.3,29.87,ENE,61,3.0,4.0,21,0.00,,,0.00,0,LWC V2.00 B727,2013-03-26 06:46:00,
2013-03-25 23:51:00,60.3,20.2,29.87,ENE,61,3.0,4.0,21,0.00,,,0.00,0,LWC V2.00 B727,2013-03-26 06:51:00,
2013-03-25 23:56:00,59.9,19.9,29.87,ENE,61,1.0,4.0,21,0.00,,,0.00,0,LWC V2.00 B727,2013-03-26 06:56:00,